»·PEaware :: N623LS KBLH-KTRM

N623LS :: KBLH-KTRM

FLIGHT INFORMATION

Flight Status: Arrived
Operator: Privately registered:
United States
More flights under this callsign
Pilot: Anonymous 18292 (18292)
Aircraft: MOONEY M-20 201 202 205 220 ATS MSE
(M20P)
More flights by this aircraft type
Origin: KBLH Blythe
United States
Destination: KTRM Desert Resorts Regl
United States
More flights between these airports :: More routes between these airports
Route:
File this flight plan on PilotEdge
Remarks:
Altitude:
(Current/Filed)
4,500ft
Speed:
(Current/Filed)
184kts
Departed: 07-May-18 08:10 PM
Arrived: 07-May-18 08:45 PM
Distance/Time
Traveled:
72nm/0:35
Distance/Time
To Go:
Arrived

Flight Plot

Page will automatically refresh every two minutes.

Flight plan parsing failed; only flown route is shown


Map Options




Map Legend


Flown Route
Filed Route
Departure Airport
Arrival Airport
Navaid (VOR, NDB)
Fix

Horizontal Profiles

Position Reports

Time Latitude Longitude Heading Altitude Ground
Speed
07-May-18 20:00 33.614051 -114.713084 90 395ft 0kts
07-May-18 20:01 33.614051 -114.713084 90 395ft 0kts
07-May-18 20:02 33.614051 -114.713084 90 395ft 0kts
07-May-18 20:03 33.614051 -114.713084 90 395ft 0kts
07-May-18 20:04 33.615082 -114.712771 46 395ft 11kts
07-May-18 20:05 33.615296 -114.706885 61 394ft 17kts
07-May-18 20:06 33.615701 -114.706204 21 394ft 0kts
07-May-18 20:07 33.615701 -114.706205 21 394ft 0kts
07-May-18 20:08 33.616535 -114.707222 269 395ft 15kts
07-May-18 20:09 33.617055 -114.734234 270 950ft 105kts
07-May-18 20:10 33.617470 -114.770406 270 1949ft 113kts
07-May-18 20:11 33.617542 -114.809243 270 2911ft 118kts
07-May-18 20:12 33.616687 -114.849248 264 3816ft 126kts
07-May-18 20:13 33.616956 -114.893739 270 4485ft 143kts
07-May-18 20:14 33.616667 -114.947102 266 4550ft 170kts
07-May-18 20:15 33.623059 -115.005053 285 4487ft 182kts
07-May-18 20:17 33.640074 -115.061452 293 4442ft 180kts
07-May-18 20:18 33.656190 -115.118133 287 4413ft 178kts
07-May-18 20:19 33.668056 -115.175826 288 4419ft 177kts
07-May-18 20:20 33.682492 -115.232224 288 4424ft 176kts
07-May-18 20:21 33.692743 -115.290005 281 4487ft 174kts
07-May-18 20:22 33.699358 -115.348243 278 4510ft 176kts
07-May-18 20:23 33.695461 -115.407625 265 4524ft 179kts
07-May-18 20:24 33.687935 -115.466950 263 4540ft 180kts
07-May-18 20:25 33.680227 -115.526310 263 4517ft 182kts
07-May-18 20:26 33.671516 -115.586162 264 4529ft 180kts
07-May-18 20:27 33.662730 -115.645405 265 4511ft 181kts
07-May-18 20:28 33.658904 -115.676835 265 4512ft 180kts
07-May-18 20:29 33.656198 -115.703706 266 4510ft 180kts
07-May-18 20:30 33.651179 -115.761831 268 4469ft 173kts
07-May-18 20:31 33.647811 -115.817659 268 4369ft 170kts
07-May-18 20:32 33.642508 -115.873704 268 3895ft 166kts
07-May-18 20:33 33.640870 -115.929019 273 3159ft 164kts
07-May-18 20:34 33.642753 -115.982666 277 2720ft 149kts
07-May-18 20:35 33.644085 -116.032170 273 2290ft 146kts
07-May-18 20:36 33.643151 -116.079771 272 1900ft 140kts
07-May-18 20:37 33.634650 -116.124512 250 1674ft 130kts
07-May-18 20:38 33.620908 -116.162701 252 1695ft 123kts
07-May-18 20:39 33.606724 -116.200726 251 1380ft 124kts
07-May-18 20:40 33.610164 -116.222660 40 990ft 128kts
07-May-18 20:41 33.611727 -116.184782 127 798ft 125kts
07-May-18 20:42 33.590509 -116.154254 114 513ft 115kts
07-May-18 20:43 33.604426 -116.140001 302 180ft 85kts
07-May-18 20:44 33.619163 -116.157823 314 -84ft 63kts
07-May-18 20:45 33.625787 -116.164731 8 -121ft 9kts
07-May-18 20:46 33.627434 -116.166604 315 -118ft 7kts
07-May-18 20:47 33.628931 -116.168408 318 -116ft 7kts
07-May-18 20:48 33.630393 -116.170150 314 -114ft 7kts
07-May-18 20:49 33.632122 -116.170932 359 -111ft 14kts
07-May-18 20:50 33.634145 -116.167578 88 -111ft 13kts
07-May-18 20:51 33.634560 -116.164936 299 -113ft 1kts
07-May-18 20:52 33.634546 -116.165130 268 -112ft 0kts
07-May-18 20:53 33.634578 -116.165069 269 -112ft 0kts
07-May-18 20:54 33.634578 -116.165069 269 -112ft 0kts
07-May-18 20:55 33.634578 -116.165069 269 -112ft 0kts
07-May-18 20:56 33.634578 -116.165069 269 -112ft 0kts
07-May-18 20:57 33.634578 -116.165069 269 -112ft 0kts
07-May-18 20:58 33.634578 -116.165069 269 -112ft 0kts
07-May-18 20:59 33.634578 -116.165069 269 -112ft 0kts

Navigation Log

Ident Type
Flight plan parsing failed, navigation log unavailable